createdAt,value
2019-01-08T00:01:46.026Z,10.20
2019-01-08T00:04:14.996Z,9.80
2019-01-08T00:06:43.897Z,10.40
2019-01-08T00:09:12.742Z,10.18
2019-01-08T00:11:41.573Z,10.32
2019-01-08T00:14:29.609Z,11.00
2019-01-08T00:16:58.722Z,10.37
2019-01-08T00:19:27.644Z,11.40
2019-01-08T00:21:56.478Z,11.15
2019-01-08T00:24:25.897Z,12.15
2019-01-08T00:26:54.724Z,11.85
2019-01-08T00:29:23.561Z,11.65
2019-01-08T00:31:52.384Z,12.40
2019-01-08T00:34:21.240Z,12.58
2019-01-08T00:36:50.069Z,11.95
2019-01-08T00:39:18.997Z,12.63
2019-01-08T00:41:47.884Z,13.55
2019-01-08T00:44:16.736Z,12.70
2019-01-08T00:46:45.569Z,12.60
2019-01-08T00:49:14.407Z,12.60
2019-01-08T00:51:43.319Z,13.20
2019-01-08T00:54:12.173Z,13.43
2019-01-08T00:56:41.014Z,13.75
2019-01-08T00:59:09.850Z,14.05
2019-01-08T01:01:39.039Z,14.20
2019-01-08T01:04:07.959Z,12.70
2019-01-08T01:06:36.870Z,12.80
2019-01-08T01:09:07.092Z,13.40
2019-01-08T01:11:36.104Z,12.50
2019-01-08T01:14:05.334Z,13.62
2019-01-08T01:16:34.160Z,13.03
2019-01-08T01:19:03.632Z,14.10
2019-01-08T01:21:32.465Z,14.00
2019-01-08T01:24:01.322Z,13.10
2019-01-08T01:26:30.419Z,13.72
2019-01-08T01:29:00.075Z,12.80
2019-01-08T01:31:29.757Z,14.05
2019-01-08T01:33:58.593Z,13.83
2019-01-08T01:36:27.522Z,12.98
2019-01-08T01:38:56.701Z,14.00
2019-01-08T01:41:25.926Z,13.90
2019-01-08T01:43:54.757Z,15.45
2019-01-08T01:46:23.717Z,14.55
2019-01-08T01:48:52.532Z,14.50
2019-01-08T01:51:40.649Z,14.40
2019-01-08T01:54:09.571Z,14.60
2019-01-08T01:56:38.421Z,13.72
2019-01-08T01:59:08.623Z,14.03
2019-01-08T02:01:37.766Z,14.07
2019-01-08T02:04:06.920Z,14.33
2019-01-08T02:06:35.859Z,14.80
2019-01-08T02:09:06.153Z,14.35
2019-01-08T02:11:35.169Z,14.03
2019-01-08T02:14:04.147Z,15.35
2019-01-08T02:16:33.078Z,13.90
2019-01-08T02:19:02.410Z,13.90
2019-01-08T02:21:31.346Z,13.78
2019-01-08T02:24:00.793Z,13.80
2019-01-08T02:26:29.721Z,13.78
2019-01-08T02:28:58.628Z,13.33
2019-01-08T02:31:27.546Z,13.70
2019-01-08T02:33:56.501Z,13.10
2019-01-08T02:36:25.422Z,13.55
2019-01-08T02:38:54.350Z,11.70
2019-01-08T02:41:23.335Z,12.73
2019-01-08T02:43:52.309Z,12.97
2019-01-08T02:46:21.726Z,12.78
2019-01-08T02:48:50.713Z,12.25
2019-01-08T02:51:19.710Z,12.63
2019-01-08T02:53:48.571Z,12.18
2019-01-08T02:56:17.899Z,12.65
2019-01-08T02:58:46.852Z,12.43
2019-01-08T03:01:15.775Z,12.03
2019-01-08T03:03:45.057Z,12.90
2019-01-08T03:06:14.206Z,12.37
2019-01-08T03:08:43.072Z,11.65
2019-01-08T03:11:12.066Z,11.60
2019-01-08T03:13:41.182Z,11.50
2019-01-08T03:16:10.173Z,11.10
2019-01-08T03:18:39.202Z,10.80
2019-01-08T03:21:08.125Z,10.90
2019-01-08T03:23:37.158Z,11.05
2019-01-08T03:26:06.710Z,10.30
2019-01-08T03:28:35.834Z,9.80
2019-01-08T03:31:04.825Z,10.40
2019-01-08T03:33:33.845Z,10.57
2019-01-08T03:36:03.113Z,10.18
2019-01-08T03:38:32.113Z,10.00
2019-01-08T03:41:01.100Z,10.68
2019-01-08T03:43:30.478Z,10.18
2019-01-08T03:45:59.589Z,10.50
2019-01-08T03:48:28.563Z,10.20
2019-01-08T03:50:57.498Z,9.58
2019-01-08T03:53:26.694Z,10.25
2019-01-08T03:55:55.683Z,8.60
2019-01-08T03:58:24.689Z,9.20
2019-01-08T04:00:53.682Z,9.85
2019-01-08T04:03:22.684Z,9.78
2019-01-08T04:05:51.912Z,10.30
2019-01-08T04:08:21.223Z,9.73
2019-01-08T04:10:50.213Z,8.58
2019-01-08T04:13:19.085Z,9.20
2019-01-08T04:15:48.284Z,8.60
2019-01-08T04:18:17.217Z,8.50
2019-01-08T04:20:46.213Z,8.77
2019-01-08T04:23:15.474Z,8.60
2019-01-08T04:25:44.410Z,8.40
2019-01-08T04:28:13.329Z,8.85
2019-01-08T04:30:42.493Z,7.90
2019-01-08T04:33:11.364Z,7.67
2019-01-08T04:35:40.233Z,8.75
2019-01-08T04:38:10.056Z,7.40
2019-01-08T04:40:39.349Z,8.10
2019-01-08T04:43:08.201Z,8.50
2019-01-08T04:45:37.147Z,8.53
2019-01-08T04:48:06.297Z,7.30
2019-01-08T04:50:35.220Z,6.70
2019-01-08T04:53:04.132Z,7.20
2019-01-08T04:55:33.001Z,6.80
2019-01-08T04:58:01.854Z,7.22
2019-01-08T05:00:30.848Z,7.97
2019-01-08T05:03:00.161Z,6.90
2019-01-08T05:05:29.093Z,7.60
2019-01-08T05:07:58.290Z,7.10
2019-01-08T05:10:27.584Z,6.50
2019-01-08T05:12:56.865Z,6.75
2019-01-08T05:15:26.209Z,7.00
2019-01-08T05:17:55.218Z,7.33
2019-01-08T05:20:24.448Z,7.75
2019-01-08T05:22:53.746Z,6.92
2019-01-08T05:25:22.600Z,6.67
2019-01-08T05:27:51.451Z,7.50
2019-01-08T05:30:20.737Z,7.30
2019-01-08T05:32:49.740Z,6.67
2019-01-08T05:35:19.021Z,7.03
2019-01-08T05:37:47.941Z,7.45
2019-01-08T05:40:16.869Z,7.30
2019-01-08T05:42:46.172Z,7.40
2019-01-08T05:45:15.118Z,7.00
2019-01-08T05:47:43.969Z,7.15
2019-01-08T05:50:12.981Z,7.30
2019-01-08T05:52:42.040Z,7.12
2019-01-08T05:55:11.162Z,7.12
2019-01-08T05:57:40.331Z,7.83
2019-01-08T06:00:16.268Z,9.28
2019-01-08T06:02:40.263Z,9.38
2019-01-08T06:05:09.273Z,8.95
2019-01-08T06:07:38.291Z,9.55
2019-01-08T06:10:08.568Z,9.05
2019-01-08T06:12:37.565Z,8.80
2019-01-08T06:15:06.578Z,7.62
2019-01-08T06:17:35.560Z,7.35
2019-01-08T06:20:04.521Z,7.30
2019-01-08T06:22:33.389Z,6.55
2019-01-08T06:25:02.373Z,6.12
2019-01-08T06:27:31.533Z,6.85
2019-01-08T06:30:00.451Z,7.15
2019-01-08T06:32:29.301Z,6.65
2019-01-08T06:34:58.296Z,6.55
2019-01-08T06:37:27.155Z,6.70
2019-01-08T06:39:56.600Z,6.58
2019-01-08T06:42:25.828Z,6.10
2019-01-08T06:44:54.688Z,6.25
2019-01-08T06:47:23.616Z,6.35
2019-01-08T06:49:52.524Z,6.62
2019-01-08T06:52:21.364Z,6.62
2019-01-08T06:54:50.481Z,6.60
2019-01-08T06:57:19.998Z,6.33
2019-01-08T06:59:48.913Z,6.58
2019-01-08T07:02:17.929Z,6.50
2019-01-08T07:04:46.777Z,6.30
2019-01-08T07:07:15.713Z,5.70
2019-01-08T07:09:44.636Z,6.00
2019-01-08T07:12:13.641Z,5.55
2019-01-08T07:14:42.909Z,5.97
2019-01-08T07:17:11.753Z,6.17
2019-01-08T07:19:41.316Z,6.28
2019-01-08T07:22:10.161Z,6.30
2019-01-08T07:24:39.066Z,5.70
2019-01-08T07:27:16.132Z,6.55
2019-01-08T07:29:39.008Z,5.53
2019-01-08T07:32:07.936Z,5.80
2019-01-08T07:34:48.782Z,6.80
2019-01-08T07:37:17.650Z,5.73
2019-01-08T07:39:46.591Z,6.08
2019-01-08T07:42:15.506Z,5.95
2019-01-08T07:44:44.480Z,5.62
2019-01-08T07:47:13.396Z,5.65
2019-01-08T07:49:42.250Z,5.60
2019-01-08T07:52:11.189Z,6.12
2019-01-08T07:54:40.034Z,5.50
2019-01-08T07:57:08.961Z,5.25
2019-01-08T07:59:37.865Z,5.53
2019-01-08T08:02:06.952Z,5.58
2019-01-08T08:04:35.917Z,5.17
2019-01-08T08:07:05.098Z,5.22
2019-01-08T08:09:34.765Z,5.15
2019-01-08T08:12:03.680Z,4.90
2019-01-08T08:14:32.687Z,5.85
2019-01-08T08:17:01.597Z,5.67
2019-01-08T08:19:30.765Z,4.60
2019-01-08T08:21:59.618Z,4.67
2019-01-08T08:24:28.534Z,4.75
2019-01-08T08:26:57.809Z,4.63
2019-01-08T08:29:26.645Z,4.62
2019-01-08T08:31:55.561Z,4.60
2019-01-08T08:34:24.500Z,4.00
2019-01-08T08:36:53.678Z,4.35
2019-01-08T08:39:23.005Z,3.72
2019-01-08T08:41:51.844Z,3.85
2019-01-08T08:44:20.695Z,4.70
2019-01-08T08:46:49.868Z,4.50
2019-01-08T08:49:18.788Z,4.00
2019-01-08T08:51:47.668Z,4.10
2019-01-08T08:54:16.584Z,4.37
2019-01-08T08:56:45.425Z,4.70
2019-01-08T08:59:14.351Z,4.27
2019-01-08T09:01:43.710Z,4.55
2019-01-08T09:04:12.569Z,4.70
2019-01-08T09:06:41.501Z,3.98
2019-01-08T09:09:10.492Z,4.80
2019-01-08T09:11:39.512Z,4.33
2019-01-08T09:14:08.426Z,4.85
2019-01-08T09:16:37.766Z,4.87
2019-01-08T09:19:06.992Z,4.10
2019-01-08T09:21:36.292Z,4.20
2019-01-08T09:24:05.558Z,3.45
2019-01-08T09:26:34.477Z,3.80
2019-01-08T09:29:03.387Z,3.87
2019-01-08T09:31:32.208Z,4.20
2019-01-08T09:34:01.060Z,3.52
2019-01-08T09:36:29.912Z,3.67
2019-01-08T09:38:58.753Z,3.90
2019-01-08T09:41:27.676Z,3.67
2019-01-08T09:43:56.596Z,3.27
2019-01-08T09:46:25.581Z,3.40
2019-01-08T09:48:54.673Z,3.20
2019-01-08T09:51:23.652Z,3.30
2019-01-08T09:53:52.561Z,3.70
2019-01-08T09:56:40.662Z,3.80
2019-01-08T09:59:09.885Z,5.70
2019-01-08T10:01:38.792Z,4.15
2019-01-08T10:04:07.804Z,5.20
2019-01-08T10:06:36.973Z,2.90
2019-01-08T10:09:06.852Z,3.30
2019-01-08T10:11:35.766Z,2.70
2019-01-08T10:14:04.788Z,2.70
2019-01-08T10:16:33.996Z,2.80
2019-01-08T10:19:02.908Z,2.37
2019-01-08T10:21:31.902Z,2.70
2019-01-08T10:24:02.069Z,2.30
2019-01-08T10:26:31.473Z,2.47
2019-01-08T10:29:00.680Z,2.30
2019-01-08T10:31:32.571Z,2.35
2019-01-08T10:34:00.413Z,2.10
2019-01-08T10:36:29.432Z,2.22
2019-01-08T10:38:58.339Z,2.08
2019-01-08T10:41:27.252Z,2.12
2019-01-08T10:43:56.160Z,2.27
2019-01-08T10:46:25.174Z,2.10
2019-01-08T10:48:54.097Z,2.60
2019-01-08T10:51:23.013Z,2.70
2019-01-08T10:53:51.986Z,2.77
2019-01-08T10:56:20.922Z,2.70
2019-01-08T10:58:49.926Z,2.40
2019-01-08T11:01:18.933Z,2.80
2019-01-08T11:03:47.787Z,2.50
2019-01-08T11:06:16.977Z,2.80
2019-01-08T11:08:45.894Z,2.40
2019-01-08T11:11:14.885Z,2.80
2019-01-08T11:13:43.814Z,2.90
2019-01-08T11:16:12.668Z,3.02
2019-01-08T11:18:41.861Z,2.90
2019-01-08T11:21:10.782Z,3.50
2019-01-08T11:23:39.692Z,3.00
2019-01-08T11:26:08.633Z,3.30
2019-01-08T11:28:37.636Z,2.92
2019-01-08T11:31:06.477Z,3.25
2019-01-08T11:33:35.360Z,3.42
2019-01-08T11:36:04.363Z,2.70
2019-01-08T11:38:33.593Z,2.80
2019-01-08T11:41:02.524Z,2.65
2019-01-08T11:43:31.436Z,2.80
2019-01-08T11:46:00.416Z,2.70
2019-01-08T11:48:29.360Z,2.80
2019-01-08T11:50:58.442Z,2.53
2019-01-08T11:53:27.368Z,2.70
2019-01-08T11:55:56.216Z,2.50
2019-01-08T11:58:25.416Z,2.52
2019-01-08T12:00:54.397Z,2.62
2019-01-08T12:03:23.324Z,2.42
2019-01-08T12:05:52.337Z,2.43
2019-01-08T12:08:21.396Z,2.52
2019-01-08T12:10:50.574Z,2.35
2019-01-08T12:13:19.523Z,1.98
2019-01-08T12:15:48.438Z,2.10
2019-01-08T12:18:17.292Z,2.60
2019-01-08T12:20:46.540Z,2.40
2019-01-08T12:23:15.513Z,2.20
2019-01-08T12:25:44.498Z,2.57
2019-01-08T12:28:13.421Z,2.40
2019-01-08T12:30:42.253Z,2.60
2019-01-08T12:33:11.184Z,2.40
2019-01-08T12:35:40.177Z,2.30
2019-01-08T12:38:09.206Z,2.80
2019-01-08T12:40:38.377Z,2.20
2019-01-08T12:43:07.309Z,2.40
2019-01-08T12:45:36.284Z,2.80
2019-01-08T12:48:05.213Z,2.05
2019-01-08T12:50:34.541Z,2.33
2019-01-08T12:53:03.749Z,2.10
2019-01-08T12:55:32.748Z,2.10
2019-01-08T12:58:01.624Z,2.20
2019-01-08T13:00:30.598Z,2.00
2019-01-08T13:02:59.536Z,2.08
2019-01-08T13:05:28.757Z,2.05
2019-01-08T13:07:57.937Z,1.85
2019-01-08T13:10:27.104Z,2.40
2019-01-08T13:12:56.093Z,2.10
2019-01-08T13:15:25.064Z,1.80
2019-01-08T13:17:54.288Z,2.13
2019-01-08T13:20:23.201Z,1.70
2019-01-08T13:22:52.213Z,2.12
2019-01-08T13:25:21.218Z,1.80
2019-01-08T13:27:50.067Z,1.50
2019-01-08T13:30:18.991Z,1.60
2019-01-08T13:32:47.980Z,2.30
2019-01-08T13:35:17.545Z,1.60
2019-01-08T13:37:46.447Z,1.67
2019-01-08T13:40:15.445Z,1.50
2019-01-08T13:42:44.718Z,1.40
2019-01-08T13:45:13.712Z,1.40
2019-01-08T13:47:42.637Z,1.80
2019-01-08T13:50:11.552Z,1.47
2019-01-08T13:52:40.817Z,1.50
2019-01-08T13:55:09.817Z,1.90
2019-01-08T13:57:38.729Z,1.40
2019-01-08T14:00:08.437Z,1.60
2019-01-08T14:02:37.408Z,1.55
2019-01-08T14:05:06.338Z,1.45
2019-01-08T14:07:35.565Z,1.70
2019-01-08T14:10:04.828Z,1.52
2019-01-08T14:12:33.745Z,1.55
2019-01-08T14:15:02.739Z,1.33
2019-01-08T14:17:31.669Z,1.35
2019-01-08T14:20:00.682Z,1.30
2019-01-08T14:22:29.609Z,1.80
2019-01-08T14:24:58.753Z,1.57
2019-01-08T14:27:28.012Z,1.60
2019-01-08T14:29:56.921Z,1.30
2019-01-08T14:32:25.909Z,3.27
2019-01-08T14:34:54.929Z,5.60
2019-01-08T14:37:23.865Z,8.50
2019-01-08T14:39:52.721Z,7.05
2019-01-08T14:42:22.077Z,2.15
2019-01-08T14:44:51.449Z,2.22
2019-01-08T14:47:20.458Z,2.08
2019-01-08T14:49:49.674Z,1.62
2019-01-08T14:52:18.605Z,1.80
2019-01-08T14:54:47.585Z,1.77
2019-01-08T14:57:16.429Z,3.20
2019-01-08T14:59:45.366Z,3.70
2019-01-08T15:02:14.288Z,2.05
2019-01-08T15:04:43.273Z,2.17
2019-01-08T15:07:12.274Z,2.50
2019-01-08T15:09:41.176Z,1.90
2019-01-08T15:12:10.189Z,1.90
2019-01-08T15:14:39.045Z,1.80
2019-01-08T15:17:07.984Z,2.00
2019-01-08T15:19:36.884Z,1.77
2019-01-08T15:22:05.984Z,1.50
2019-01-08T15:24:34.824Z,1.80
2019-01-08T15:27:03.835Z,2.00
2019-01-08T15:29:32.892Z,2.60
2019-01-08T15:32:01.889Z,2.00
2019-01-08T15:34:30.877Z,2.40
2019-01-08T15:36:59.796Z,2.17
2019-01-08T15:39:28.789Z,2.20
2019-01-08T15:41:58.883Z,2.00
2019-01-08T15:44:28.000Z,2.30
2019-01-08T15:46:56.925Z,2.17
2019-01-08T15:49:26.099Z,2.20
2019-01-08T15:51:54.948Z,6.35
2019-01-08T15:54:23.924Z,2.87
2019-01-08T15:56:52.768Z,2.65
2019-01-08T15:59:21.684Z,2.63
2019-01-08T16:01:50.538Z,3.02
2019-01-08T16:04:20.152Z,2.70
2019-01-08T16:06:49.748Z,2.60
2019-01-08T16:09:18.733Z,2.37
2019-01-08T16:11:47.648Z,2.50
2019-01-08T16:14:16.578Z,2.20
2019-01-08T16:16:45.510Z,2.70
2019-01-08T16:19:14.493Z,3.33
2019-01-08T16:21:43.408Z,2.65
2019-01-08T16:24:12.744Z,2.40
2019-01-08T16:26:41.606Z,2.83
2019-01-08T16:29:10.500Z,2.45
2019-01-08T16:31:39.704Z,3.25
2019-01-08T16:34:08.998Z,2.60
2019-01-08T16:36:37.821Z,2.55
2019-01-08T16:39:08.252Z,2.40
2019-01-08T16:41:37.240Z,2.52
2019-01-08T16:44:06.224Z,4.20
2019-01-08T16:46:35.225Z,2.52
2019-01-08T16:49:04.186Z,3.40
2019-01-08T16:51:33.110Z,2.98
2019-01-08T16:54:02.030Z,2.12
2019-01-08T16:56:30.864Z,2.65
2019-01-08T16:58:59.713Z,2.90
2019-01-08T17:01:29.257Z,2.92
2019-01-08T17:03:58.302Z,3.27
2019-01-08T17:06:27.232Z,2.92
2019-01-08T17:08:56.077Z,2.80
2019-01-08T17:11:24.998Z,2.47
2019-01-08T17:13:53.918Z,2.60
2019-01-08T17:16:22.892Z,2.40
2019-01-08T17:18:51.823Z,2.67
2019-01-08T17:21:20.817Z,2.70
2019-01-08T17:23:49.753Z,2.83
2019-01-08T17:26:18.725Z,2.60
2019-01-08T17:28:47.582Z,2.17
2019-01-08T17:31:16.556Z,3.10
2019-01-08T17:33:45.414Z,2.60
2019-01-08T17:36:14.248Z,2.67
2019-01-08T17:38:43.444Z,2.57
2019-01-08T17:41:12.355Z,2.42
2019-01-08T17:43:41.513Z,2.20
2019-01-08T17:46:10.450Z,2.60
2019-01-08T17:48:39.293Z,2.90
2019-01-08T17:51:08.128Z,2.35
2019-01-08T17:53:37.121Z,2.75
2019-01-08T17:56:25.152Z,3.47
2019-01-08T17:59:14.933Z,3.00
2019-01-08T18:01:56.413Z,2.30
2019-01-08T18:04:25.348Z,2.45
2019-01-08T18:06:54.270Z,2.50
2019-01-08T18:09:23.178Z,2.77
2019-01-08T18:11:52.158Z,2.50
2019-01-08T18:14:21.016Z,11.70
2019-01-08T18:16:49.860Z,4.15
2019-01-08T18:19:18.721Z,4.00
2019-01-08T18:21:47.977Z,3.87
2019-01-08T18:24:17.221Z,3.50
2019-01-08T18:26:46.479Z,4.08
2019-01-08T18:29:15.405Z,4.20
2019-01-08T18:31:44.248Z,4.08
2019-01-08T18:34:13.273Z,4.37
2019-01-08T18:36:42.549Z,5.97
2019-01-08T18:39:11.461Z,8.50
2019-01-08T18:41:40.481Z,5.00
2019-01-08T18:44:09.479Z,4.30
2019-01-08T18:46:38.820Z,3.45
2019-01-08T18:49:08.082Z,4.77
2019-01-08T18:51:37.074Z,4.05
2019-01-08T18:54:06.318Z,3.40
2019-01-08T18:56:35.175Z,4.53
2019-01-08T18:59:04.174Z,4.10
2019-01-08T19:01:33.171Z,7.92
2019-01-08T19:04:02.084Z,4.80
2019-01-08T19:06:31.090Z,4.65
2019-01-08T19:09:31.776Z,5.28
2019-01-08T19:12:00.740Z,4.42
2019-01-08T19:14:38.149Z,4.30
2019-01-08T19:17:07.161Z,3.77
2019-01-08T19:19:36.478Z,3.90
2019-01-08T19:22:05.568Z,4.08
2019-01-08T19:24:34.489Z,3.45
2019-01-08T19:27:03.415Z,3.65
2019-01-08T19:29:32.653Z,3.92
2019-01-08T19:32:01.855Z,3.50
2019-01-08T19:34:30.720Z,4.30
2019-01-08T19:36:59.936Z,4.15
2019-01-08T19:39:28.838Z,6.20
2019-01-08T19:41:58.085Z,4.87
2019-01-08T19:44:27.065Z,5.57
2019-01-08T19:46:56.073Z,3.80
2019-01-08T19:49:24.988Z,5.30
2019-01-08T19:51:54.316Z,5.00
2019-01-08T19:54:23.438Z,4.20
2019-01-08T19:56:52.448Z,5.20
2019-01-08T19:59:21.609Z,5.85
2019-01-08T20:01:50.456Z,4.92
2019-01-08T20:04:19.461Z,5.50
2019-01-08T20:06:48.366Z,4.50
2019-01-08T20:09:25.117Z,4.60
2019-01-08T20:11:48.244Z,3.90
2019-01-08T20:14:18.157Z,3.90
2019-01-08T20:16:47.073Z,3.92
2019-01-08T20:19:16.214Z,3.25
2019-01-08T20:21:45.209Z,3.87
2019-01-08T20:24:14.066Z,3.50
2019-01-08T20:26:42.989Z,3.40
2019-01-08T20:29:11.909Z,4.00
2019-01-08T20:31:40.873Z,3.80
2019-01-08T20:34:09.873Z,3.47
2019-01-08T20:36:38.806Z,3.60
2019-01-08T20:39:12.816Z,3.70
2019-01-08T20:41:41.862Z,4.08
2019-01-08T20:44:10.849Z,3.40
2019-01-08T20:46:39.762Z,3.60
2019-01-08T20:49:08.609Z,3.97
2019-01-08T20:51:37.795Z,3.80
2019-01-08T20:54:06.721Z,6.05
2019-01-08T20:56:35.564Z,4.95
2019-01-08T20:59:04.561Z,4.37
2019-01-08T21:01:33.414Z,4.80
2019-01-08T21:04:02.335Z,4.65
2019-01-08T21:06:31.333Z,4.33
2019-01-08T21:09:00.541Z,4.78
2019-01-08T21:11:30.036Z,3.90
2019-01-08T21:13:59.040Z,4.15
2019-01-08T21:16:27.893Z,3.65
2019-01-08T21:18:56.813Z,3.80
2019-01-08T21:21:25.704Z,4.03
2019-01-08T21:23:54.698Z,3.50
2019-01-08T21:26:24.201Z,4.22
2019-01-08T21:28:53.127Z,4.00
2019-01-08T21:31:22.028Z,4.30
2019-01-08T21:33:51.660Z,3.80
2019-01-08T21:36:20.689Z,3.70
2019-01-08T21:38:49.878Z,3.25
2019-01-08T21:41:18.705Z,3.00
2019-01-08T21:43:47.621Z,3.20
2019-01-08T21:46:16.567Z,2.80
2019-01-08T21:48:45.488Z,4.58
2019-01-08T21:51:14.327Z,5.35
2019-01-08T21:53:43.202Z,5.50
2019-01-08T21:56:12.128Z,3.80
2019-01-08T21:58:41.049Z,5.62
2019-01-08T22:01:10.300Z,4.30
2019-01-08T22:03:39.225Z,5.10
2019-01-08T22:06:08.207Z,4.60
2019-01-08T22:08:37.365Z,3.70
2019-01-08T22:11:06.345Z,3.10
2019-01-08T22:13:35.565Z,2.80
2019-01-08T22:16:04.538Z,3.00
2019-01-08T22:18:33.794Z,2.40
2019-01-08T22:21:02.625Z,2.22
2019-01-08T22:23:31.967Z,3.10
2019-01-08T22:26:01.229Z,3.22
2019-01-08T22:28:30.131Z,3.02
2019-01-08T22:30:59.803Z,2.65
2019-01-08T22:33:28.731Z,2.50
2019-01-08T22:35:57.742Z,2.80
2019-01-08T22:38:26.737Z,2.60
2019-01-08T22:40:56.122Z,2.30
2019-01-08T22:43:25.100Z,2.50
2019-01-08T22:45:54.103Z,2.90
2019-01-08T22:48:23.385Z,2.50
2019-01-08T22:50:52.388Z,2.40
2019-01-08T22:53:21.461Z,2.70
2019-01-08T22:55:50.449Z,2.50
2019-01-08T22:58:19.921Z,2.30
2019-01-08T23:01:08.229Z,2.60
2019-01-08T23:03:37.755Z,2.00
2019-01-08T23:06:06.744Z,2.20
2019-01-08T23:08:35.753Z,2.10
2019-01-08T23:11:04.797Z,2.00
2019-01-08T23:13:33.712Z,1.90
2019-01-08T23:16:02.700Z,1.72
2019-01-08T23:18:31.674Z,1.50
2019-01-08T23:21:01.013Z,2.08
2019-01-08T23:23:29.973Z,1.72
2019-01-08T23:25:59.000Z,2.00
2019-01-08T23:28:27.985Z,2.15
2019-01-08T23:30:56.977Z,1.50
2019-01-08T23:33:25.968Z,1.50
2019-01-08T23:35:55.283Z,1.52
2019-01-08T23:38:24.269Z,1.70
2019-01-08T23:40:53.577Z,2.00
2019-01-08T23:43:22.604Z,1.90
2019-01-08T23:45:51.592Z,1.60
2019-01-08T23:48:20.604Z,1.50
2019-01-08T23:50:49.605Z,1.98
2019-01-08T23:53:32.885Z,1.67
2019-01-08T23:56:05.907Z,1.90
2019-01-08T23:58:34.885Z,1.62
